Time;durP1;ratioP1;P1;durP2;ratioP2;P2;SDS_P1;SDS_P2;PMS_P1;PMS_P2;Temp;Humidity;BMP_temperature;BMP_pressure;BME280_temperature;BME280_humidity;BME280_pressure;Samples;Min_cycle;Max_cycle;Signal;HPM_P1;HPM_P2
2023/01/08 00:00:58;;;;;;;11.45;7.93;;;;;;;;;;5064325;28;20132;-79
2023/01/08 00:03:24;;;;;;;12.77;8.48;;;;;;;;;;5064186;28;20532;-79
2023/01/08 00:05:51;;;;;;;13.63;8.43;;;;;;;;;;5059788;28;20047;-78
2023/01/08 00:08:18;;;;;;;11.65;7.25;;;;;;;;;;5056666;28;20041;-78
2023/01/08 00:13:52;;;;;;;9.93;7.05;;;;;;;;;;5068893;28;20045;-79
2023/01/08 00:39:52;;;;;;;10.05;5.60;;;;;;;;;;4939698;29;20051;-81
2023/01/08 00:42:20;;;;;;;7.95;5.10;;;;;;;;;;4931801;28;20077;-80
2023/01/08 00:44:47;;;;;;;9.38;6.10;;;;;;;;;;5010310;28;20042;-81
2023/01/08 00:47:14;;;;;;;8.10;5.63;;;;;;;;;;5058632;28;20045;-80
2023/01/08 00:49:41;;;;;;;9.65;6.22;;;;;;;;;;5064255;28;20045;-80
2023/01/08 00:52:08;;;;;;;8.95;5.80;;;;;;;;;;5064134;28;20049;-81
2023/01/08 00:54:34;;;;;;;9.98;6.00;;;;;;;;;;5065087;28;20053;-81
2023/01/08 00:57:01;;;;;;;9.38;5.97;;;;;;;;;;5065589;28;20045;-80
2023/01/08 00:59:29;;;;;;;8.68;5.47;;;;;;;;;;5065289;28;20128;-79
2023/01/08 01:01:56;;;;;;;10.50;5.50;;;;;;;;;;5065710;28;20510;-81
2023/01/08 01:04:23;;;;;;;9.35;5.20;;;;;;;;;;5066259;28;20079;-81
2023/01/08 01:06:49;;;;;;;8.68;4.90;;;;;;;;;;5061748;28;20045;-82
2023/01/08 01:09:16;;;;;;;8.35;5.32;;;;;;;;;;5058017;28;20080;-82
2023/01/08 01:11:42;;;;;;;8.75;5.22;;;;;;;;;;5057125;28;20045;-82
2023/01/08 01:14:14;;;;;;;11.77;5.45;;;;;;;;;;5056622;28;20045;-81
2023/01/08 01:16:42;;;;;;;7.70;4.88;;;;;;;;;;5057679;28;20045;-79
2023/01/08 01:19:10;;;;;;;9.23;5.15;;;;;;;;;;5059889;28;20053;-79
2023/01/08 01:21:36;;;;;;;6.85;4.20;;;;;;;;;;5057293;28;20049;-78
2023/01/08 01:24:06;;;;;;;7.75;3.95;;;;;;;;;;5058140;28;20056;-78
2023/01/08 01:32:11;;;;;;;8.27;4.25;;;;;;;;;;4998596;28;20587;-81
2023/01/08 01:34:38;;;;;;;6.95;3.92;;;;;;;;;;5054410;28;20044;-81
2023/01/08 01:37:06;;;;;;;6.40;3.50;;;;;;;;;;5057845;28;20076;-81
2023/01/08 01:39:33;;;;;;;5.72;3.80;;;;;;;;;;5056687;28;20088;-80
2023/01/08 01:41:59;;;;;;;7.25;3.65;;;;;;;;;;5056137;28;20496;-81
2023/01/08 01:44:41;;;;;;;6.70;3.42;;;;;;;;;;5059250;28;20443;-81
2023/01/08 01:47:25;;;;;;;6.90;4.00;;;;;;;;;;5059518;28;20037;-81
2023/01/08 01:49:56;;;;;;;5.82;3.20;;;;;;;;;;5059242;28;20095;-82
2023/01/08 01:52:26;;;;;;;7.60;3.50;;;;;;;;;;5057737;28;20124;-81
2023/01/08 01:54:53;;;;;;;6.35;2.80;;;;;;;;;;5059128;28;20116;-81
2023/01/08 01:57:20;;;;;;;4.82;3.00;;;;;;;;;;5060944;28;20037;-80
2023/01/08 01:59:48;;;;;;;6.05;3.13;;;;;;;;;;5070721;28;20110;-79
2023/01/08 02:02:16;;;;;;;5.95;3.55;;;;;;;;;;5068817;28;20309;-79
2023/01/08 02:04:43;;;;;;;6.30;3.67;;;;;;;;;;5070765;28;20041;-80
2023/01/08 02:07:15;;;;;;;6.57;3.80;;;;;;;;;;5059321;28;20083;-79
2023/01/08 02:09:47;;;;;;;5.75;3.25;;;;;;;;;;5061991;28;20053;-79
2023/01/08 02:12:19;;;;;;;6.32;3.40;;;;;;;;;;5062582;28;20049;-78
2023/01/08 02:15:00;;;;;;;5.90;3.22;;;;;;;;;;5062028;28;20389;-78
2023/01/08 02:17:35;;;;;;;5.78;3.20;;;;;;;;;;5061995;28;20068;-78
2023/01/08 02:20:11;;;;;;;7.22;3.20;;;;;;;;;;5062839;28;20128;-78
2023/01/08 02:22:51;;;;;;;6.78;2.97;;;;;;;;;;5061835;28;20051;-78
2023/01/08 02:25:27;;;;;;;6.53;3.20;;;;;;;;;;5061651;28;20083;-82
2023/01/08 02:27:57;;;;;;;5.88;3.47;;;;;;;;;;5059130;28;20107;-80
2023/01/08 02:30:24;;;;;;;5.63;3.30;;;;;;;;;;5055290;28;20049;-79
2023/01/08 02:32:51;;;;;;;5.60;3.08;;;;;;;;;;5054625;28;20045;-79
2023/01/08 02:35:19;;;;;;;6.68;3.10;;;;;;;;;;5054712;28;20105;-79
2023/01/08 02:37:45;;;;;;;6.40;3.25;;;;;;;;;;5054191;28;20079;-80
2023/01/08 02:40:23;;;;;;;5.30;3.05;;;;;;;;;;5055029;28;20048;-81
2023/01/08 02:42:57;;;;;;;6.00;3.22;;;;;;;;;;5053785;28;20045;-80
2023/01/08 02:45:35;;;;;;;5.88;3.10;;;;;;;;;;5054544;28;20503;-79
2023/01/08 02:48:08;;;;;;;5.63;2.97;;;;;;;;;;5053894;28;20088;-79
2023/01/08 02:50:40;;;;;;;6.28;3.55;;;;;;;;;;5055028;28;20132;-79
2023/01/08 02:53:11;;;;;;;7.78;3.40;;;;;;;;;;5055797;28;20424;-80
2023/01/08 02:55:41;;;;;;;6.78;3.60;;;;;;;;;;5055022;28;20076;-80
2023/01/08 02:58:10;;;;;;;8.68;3.50;;;;;;;;;;5056695;28;20105;-80
2023/01/08 03:00:39;;;;;;;8.23;3.70;;;;;;;;;;5056126;28;20049;-79
2023/01/08 03:03:11;;;;;;;5.38;3.17;;;;;;;;;;5056505;28;20139;-79
2023/01/08 03:05:39;;;;;;;7.65;3.35;;;;;;;;;;5055539;28;20045;-80
2023/01/08 03:08:06;;;;;;;6.97;3.85;;;;;;;;;;5056070;28;20078;-80
2023/01/08 03:10:37;;;;;;;6.70;3.67;;;;;;;;;;5055976;28;20128;-79
2023/01/08 03:13:08;;;;;;;6.38;3.35;;;;;;;;;;5057381;28;20045;-81
2023/01/08 03:15:43;;;;;;;6.72;3.67;;;;;;;;;;5056653;28;20040;-81
2023/01/08 03:18:14;;;;;;;6.13;3.53;;;;;;;;;;5037070;28;20172;-81
2023/01/08 03:20:41;;;;;;;7.63;3.40;;;;;;;;;;5045109;28;20090;-79
2023/01/08 03:23:11;;;;;;;6.40;3.75;;;;;;;;;;5060774;28;20045;-81
2023/01/08 03:25:42;;;;;;;6.15;3.15;;;;;;;;;;5056987;28;20056;-81
2023/01/08 03:28:13;;;;;;;5.65;3.60;;;;;;;;;;5053698;28;20041;-80
2023/01/08 03:30:44;;;;;;;6.78;3.53;;;;;;;;;;5054240;28;20053;-82
2023/01/08 03:33:13;;;;;;;5.20;3.10;;;;;;;;;;5052396;28;20048;-81
2023/01/08 03:35:48;;;;;;;7.68;3.70;;;;;;;;;;5053754;28;20055;-80
2023/01/08 03:38:20;;;;;;;6.07;3.40;;;;;;;;;;5056864;28;20088;-80
2023/01/08 03:40:52;;;;;;;6.57;3.47;;;;;;;;;;5057373;28;20053;-81
2023/01/08 03:43:19;;;;;;;10.55;3.40;;;;;;;;;;5062573;28;20056;-81
2023/01/08 03:45:51;;;;;;;6.47;3.20;;;;;;;;;;5064299;28;20045;-81
2023/01/08 03:48:20;;;;;;;5.85;3.20;;;;;;;;;;5063418;28;20095;-81
2023/01/08 03:50:47;;;;;;;5.80;3.28;;;;;;;;;;5061133;28;20045;-80
2023/01/08 03:53:14;;;;;;;6.07;3.08;;;;;;;;;;5061645;28;20105;-81
2023/01/08 03:55:40;;;;;;;7.90;3.80;;;;;;;;;;5062442;28;20614;-81
2023/01/08 03:58:07;;;;;;;4.65;2.92;;;;;;;;;;5063265;28;20040;-84
2023/01/08 04:00:34;;;;;;;5.38;3.00;;;;;;;;;;5062417;28;20504;-81
2023/01/08 04:03:02;;;;;;;4.82;2.80;;;;;;;;;;5062584;28;20120;-81
2023/01/08 04:05:28;;;;;;;4.82;2.72;;;;;;;;;;5063322;28;20056;-81
2023/01/08 04:07:56;;;;;;;5.28;2.95;;;;;;;;;;5063202;28;20048;-83
2023/01/08 04:10:23;;;;;;;5.30;2.47;;;;;;;;;;5063979;28;20401;-80
2023/01/08 04:12:50;;;;;;;5.75;3.08;;;;;;;;;;5062959;28;20045;-81
2023/01/08 04:15:17;;;;;;;5.88;2.70;;;;;;;;;;5062996;28;20064;-79
2023/01/08 04:17:43;;;;;;;4.53;2.75;;;;;;;;;;5063418;28;20049;-79
2023/01/08 04:20:12;;;;;;;5.03;2.55;;;;;;;;;;5064237;28;20108;-84
2023/01/08 04:22:38;;;;;;;5.80;2.58;;;;;;;;;;5043583;28;20046;-81
2023/01/08 04:25:05;;;;;;;4.50;2.47;;;;;;;;;;5053421;28;20469;-82
2023/01/08 04:27:32;;;;;;;5.90;2.50;;;;;;;;;;5063552;28;20045;-82
2023/01/08 04:29:59;;;;;;;5.78;2.53;;;;;;;;;;5063807;28;20063;-80
2023/01/08 04:32:25;;;;;;;5.55;2.95;;;;;;;;;;5063706;28;20284;-81
2023/01/08 04:34:52;;;;;;;5.05;2.33;;;;;;;;;;5064071;28;20071;-83
2023/01/08 04:37:20;;;;;;;4.40;2.28;;;;;;;;;;5063726;28;20084;-81
2023/01/08 04:39:46;;;;;;;4.40;2.45;;;;;;;;;;5063609;28;20040;-83
2023/01/08 04:42:13;;;;;;;5.22;2.80;;;;;;;;;;5063848;28;20488;-79
2023/01/08 04:44:40;;;;;;;5.18;2.45;;;;;;;;;;5063723;28;20105;-80
2023/01/08 04:47:06;;;;;;;3.70;2.20;;;;;;;;;;5063299;28;20081;-81
2023/01/08 04:49:33;;;;;;;4.30;2.53;;;;;;;;;;5063855;28;20080;-83
2023/01/08 04:52:00;;;;;;;4.38;2.58;;;;;;;;;;5065258;28;20045;-80
2023/01/08 04:54:28;;;;;;;4.15;2.15;;;;;;;;;;5064494;28;20112;-79
2023/01/08 04:56:54;;;;;;;4.53;2.22;;;;;;;;;;5064880;28;20091;-81
2023/01/08 04:59:21;;;;;;;4.88;2.30;;;;;;;;;;5064187;28;20061;-80
2023/01/08 05:01:47;;;;;;;5.30;2.30;;;;;;;;;;5063496;28;20045;-81
2023/01/08 05:04:14;;;;;;;5.25;2.50;;;;;;;;;;5061856;28;20048;-80
2023/01/08 05:06:41;;;;;;;5.85;2.38;;;;;;;;;;5043123;28;20056;-80
2023/01/08 05:09:08;;;;;;;4.55;2.08;;;;;;;;;;5042508;28;20064;-80
2023/01/08 05:11:36;;;;;;;5.68;2.78;;;;;;;;;;5060531;28;20059;-80
2023/01/08 05:14:04;;;;;;;4.97;2.58;;;;;;;;;;5072493;28;20052;-79
2023/01/08 05:16:31;;;;;;;4.13;2.00;;;;;;;;;;5073342;28;20049;-80
2023/01/08 05:18:58;;;;;;;4.10;2.13;;;;;;;;;;5073260;28;20069;-79
2023/01/08 05:21:24;;;;;;;3.72;2.00;;;;;;;;;;5073404;28;20049;-80
2023/01/08 05:23:51;;;;;;;4.47;2.20;;;;;;;;;;5073141;28;20049;-81
2023/01/08 05:26:18;;;;;;;5.05;2.30;;;;;;;;;;5070318;28;20049;-80
2023/01/08 05:28:46;;;;;;;4.80;2.30;;;;;;;;;;5075302;28;20076;-79
2023/01/08 05:31:13;;;;;;;5.85;2.40;;;;;;;;;;5073857;28;20108;-80
2023/01/08 05:33:40;;;;;;;4.57;2.38;;;;;;;;;;5075595;28;20092;-80
2023/01/08 05:36:09;;;;;;;4.75;2.45;;;;;;;;;;5062738;28;20060;-82
2023/01/08 05:38:35;;;;;;;5.25;2.30;;;;;;;;;;5061208;28;20117;-82
2023/01/08 05:41:02;;;;;;;4.13;2.20;;;;;;;;;;5060498;28;20045;-82
2023/01/08 05:43:29;;;;;;;5.68;2.50;;;;;;;;;;5058936;28;20076;-81
2023/01/08 05:45:59;;;;;;;4.80;2.20;;;;;;;;;;5058534;28;20083;-81
2023/01/08 05:48:26;;;;;;;4.27;2.20;;;;;;;;;;5058639;28;20508;-82
2023/01/08 05:50:53;;;;;;;4.72;2.65;;;;;;;;;;5057705;28;20053;-81
2023/01/08 05:53:19;;;;;;;4.45;2.63;;;;;;;;;;5058779;28;20080;-81
2023/01/08 05:55:46;;;;;;;4.30;2.60;;;;;;;;;;5058218;28;20045;-82
2023/01/08 05:58:13;;;;;;;5.53;2.85;;;;;;;;;;5067487;28;20040;-80
2023/01/08 06:00:40;;;;;;;5.07;2.60;;;;;;;;;;5075787;28;20055;-80
2023/01/08 06:03:08;;;;;;;6.40;3.00;;;;;;;;;;5075146;28;20045;-81
2023/01/08 06:05:35;;;;;;;5.72;3.40;;;;;;;;;;5071358;28;20108;-83
2023/01/08 06:08:01;;;;;;;7.35;4.07;;;;;;;;;;5060445;28;20048;-83
2023/01/08 06:10:28;;;;;;;5.65;3.45;;;;;;;;;;5060289;28;20072;-82
2023/01/08 06:12:55;;;;;;;6.82;3.40;;;;;;;;;;5059000;28;20083;-83
2023/01/08 06:15:22;;;;;;;5.72;3.15;;;;;;;;;;5058795;28;20108;-82
2023/01/08 06:17:49;;;;;;;5.95;3.42;;;;;;;;;;5057668;28;20072;-82
2023/01/08 06:20:17;;;;;;;6.30;3.05;;;;;;;;;;5057966;28;20214;-82
2023/01/08 06:22:44;;;;;;;6.88;3.60;;;;;;;;;;5057799;28;20110;-82
2023/01/08 06:25:10;;;;;;;6.40;3.40;;;;;;;;;;5056962;28;20037;-82
2023/01/08 06:27:37;;;;;;;6.50;3.08;;;;;;;;;;5058213;28;20075;-82
2023/01/08 06:30:05;;;;;;;6.05;3.08;;;;;;;;;;5056605;28;20068;-82
2023/01/08 06:32:31;;;;;;;7.00;3.67;;;;;;;;;;5056821;28;20044;-82
2023/01/08 06:34:58;;;;;;;5.72;3.38;;;;;;;;;;5056767;28;20510;-82
2023/01/08 06:37:26;;;;;;;5.78;3.15;;;;;;;;;;5056537;28;20045;-82
2023/01/08 06:39:53;;;;;;;8.27;3.50;;;;;;;;;;5056776;28;20072;-81
2023/01/08 06:42:20;;;;;;;4.63;3.15;;;;;;;;;;5057189;28;20072;-82
2023/01/08 06:44:46;;;;;;;6.70;3.50;;;;;;;;;;5056205;28;20048;-82
2023/01/08 06:47:13;;;;;;;7.10;3.95;;;;;;;;;;5056854;28;20052;-80
2023/01/08 06:49:39;;;;;;;5.53;3.40;;;;;;;;;;5056992;28;20049;-81
2023/01/08 06:52:06;;;;;;;6.15;3.25;;;;;;;;;;5056298;28;20512;-82
2023/01/08 06:54:34;;;;;;;8.48;3.70;;;;;;;;;;5056807;28;20068;-82
2023/01/08 06:57:01;;;;;;;5.88;3.60;;;;;;;;;;5057526;28;20535;-81
2023/01/08 06:59:27;;;;;;;5.68;3.15;;;;;;;;;;5057875;28;20570;-80
2023/01/08 07:01:54;;;;;;;4.90;2.97;;;;;;;;;;5056042;28;20041;-80
2023/01/08 07:04:21;;;;;;;5.07;3.38;;;;;;;;;;5054903;28;20420;-82
2023/01/08 07:06:47;;;;;;;6.07;3.25;;;;;;;;;;5053262;28;20132;-82
2023/01/08 07:09:15;;;;;;;5.32;2.85;;;;;;;;;;5056391;28;20049;-80
2023/01/08 07:11:43;;;;;;;5.97;2.90;;;;;;;;;;5059700;28;20075;-82
2023/01/08 07:14:10;;;;;;;6.38;3.72;;;;;;;;;;5060982;28;20051;-80
2023/01/08 07:16:37;;;;;;;6.93;3.75;;;;;;;;;;5061596;28;20076;-81
2023/01/08 07:19:04;;;;;;;6.18;3.05;;;;;;;;;;5060682;28;20040;-81
2023/01/08 07:21:30;;;;;;;8.18;3.42;;;;;;;;;;5060462;28;20057;-81
2023/01/08 07:23:58;;;;;;;6.07;3.47;;;;;;;;;;5059858;28;20049;-81
2023/01/08 07:26:24;;;;;;;4.80;2.67;;;;;;;;;;5060265;28;20127;-80
2023/01/08 07:28:52;;;;;;;6.28;2.88;;;;;;;;;;5059096;28;20486;-81
2023/01/08 07:31:19;;;;;;;6.30;3.00;;;;;;;;;;5059372;28;20411;-82
2023/01/08 07:33:46;;;;;;;6.00;3.30;;;;;;;;;;5059353;28;20072;-81
2023/01/08 07:36:13;;;;;;;5.40;3.22;;;;;;;;;;5057956;28;20049;-80
2023/01/08 07:38:39;;;;;;;5.63;2.80;;;;;;;;;;5058568;28;20123;-80
2023/01/08 07:41:06;;;;;;;4.28;2.45;;;;;;;;;;5058648;28;20067;-81
2023/01/08 07:43:34;;;;;;;5.78;2.50;;;;;;;;;;5060872;28;20407;-79
2023/01/08 07:46:03;;;;;;;4.60;2.30;;;;;;;;;;5070099;28;20040;-79
2023/01/08 07:48:30;;;;;;;6.65;2.40;;;;;;;;;;5066214;28;20053;-82
2023/01/08 07:51:01;;;;;;;6.32;2.67;;;;;;;;;;5065597;28;20049;-80
2023/01/08 07:53:28;;;;;;;5.00;2.30;;;;;;;;;;5064646;28;20051;-81
2023/01/08 07:55:59;;;;;;;4.90;2.30;;;;;;;;;;5064813;28;20041;-81
2023/01/08 07:58:26;;;;;;;5.30;2.65;;;;;;;;;;5064022;28;20047;-80
2023/01/08 08:00:53;;;;;;;6.07;2.63;;;;;;;;;;5060562;28;20143;-78
2023/01/08 08:03:21;;;;;;;6.43;2.78;;;;;;;;;;5056901;28;20103;-78
2023/01/08 08:05:48;;;;;;;6.53;2.83;;;;;;;;;;5056313;28;20462;-81
2023/01/08 08:08:14;;;;;;;5.55;2.67;;;;;;;;;;5055594;28;20084;-79
2023/01/08 08:10:43;;;;;;;4.50;2.70;;;;;;;;;;5056267;28;20048;-80
2023/01/08 08:13:10;;;;;;;4.82;2.30;;;;;;;;;;5056019;28;20053;-80
2023/01/08 08:15:38;;;;;;;4.75;2.28;;;;;;;;;;5057888;28;20052;-80
2023/01/08 08:18:05;;;;;;;5.55;2.60;;;;;;;;;;5059952;28;20049;-79
2023/01/08 08:20:33;;;;;;;4.72;2.28;;;;;;;;;;5058471;28;20460;-79
2023/01/08 08:23:01;;;;;;;4.97;2.60;;;;;;;;;;5058073;28;20481;-79
2023/01/08 08:25:28;;;;;;;5.82;2.50;;;;;;;;;;5059834;28;20476;-80
2023/01/08 08:27:57;;;;;;;8.20;3.70;;;;;;;;;;5060373;28;20074;-81
2023/01/08 08:30:24;;;;;;;5.97;3.10;;;;;;;;;;5060805;28;20103;-79
2023/01/08 08:32:51;;;;;;;5.20;2.28;;;;;;;;;;5059132;28;20057;-82
2023/01/08 08:35:17;;;;;;;4.05;2.13;;;;;;;;;;5057602;28;20120;-78
2023/01/08 08:37:45;;;;;;;4.53;2.50;;;;;;;;;;5057723;28;20080;-79
2023/01/08 08:40:12;;;;;;;4.57;2.58;;;;;;;;;;5057313;28;20045;-78
2023/01/08 08:42:39;;;;;;;4.32;2.17;;;;;;;;;;5057039;28;20080;-82
2023/01/08 08:45:07;;;;;;;4.40;2.50;;;;;;;;;;5058307;28;20080;-81
2023/01/08 08:47:33;;;;;;;5.18;2.90;;;;;;;;;;5058530;28;20064;-80
2023/01/08 08:50:00;;;;;;;5.28;2.75;;;;;;;;;;5057424;28;20080;-81
2023/01/08 08:56:03;;;;;;;5.60;3.10;;;;;;;;;;5047581;28;20056;-78
2023/01/08 08:58:30;;;;;;;4.28;2.40;;;;;;;;;;5060749;28;20048;-80
2023/01/08 09:01:01;;;;;;;4.97;2.80;;;;;;;;;;5054998;28;20095;-78
2023/01/08 09:03:27;;;;;;;;;;;;;;;;;;5058565;28;20137;-81
2023/01/08 09:05:54;;;;;;;6.15;2.80;;;;;;;;;;5058455;28;20043;-80
2023/01/08 09:08:20;;;;;;;6.20;3.38;;;;;;;;;;5058632;28;20049;-80
2023/01/08 09:10:47;;;;;;;7.00;2.90;;;;;;;;;;5058542;28;20108;-81
2023/01/08 09:13:15;;;;;;;7.20;3.42;;;;;;;;;;5059266;28;20056;-81
2023/01/08 09:15:42;;;;;;;9.07;3.30;;;;;;;;;;5060840;28;20052;-81
2023/01/08 09:18:09;;;;;;;7.13;3.10;;;;;;;;;;5060108;28;20051;-81
2023/01/08 09:20:35;;;;;;;7.22;3.58;;;;;;;;;;5059143;28;20087;-81
2023/01/08 09:23:02;;;;;;;7.50;3.65;;;;;;;;;;5059131;28;20447;-81
2023/01/08 09:25:29;;;;;;;6.40;3.45;;;;;;;;;;5058377;28;20507;-80
2023/01/08 09:28:00;;;;;;;5.90;3.40;;;;;;;;;;5059295;28;20041;-81
2023/01/08 09:30:28;;;;;;;6.93;3.70;;;;;;;;;;5059137;28;20480;-80
2023/01/08 09:32:58;;;;;;;5.82;3.88;;;;;;;;;;5057566;28;20098;-80
2023/01/08 09:35:25;;;;;;;7.85;3.47;;;;;;;;;;5056446;28;20554;-82
2023/01/08 09:37:53;;;;;;;5.85;3.25;;;;;;;;;;5038381;28;20061;-81
2023/01/08 09:40:22;;;;;;;4.53;2.80;;;;;;;;;;5038607;28;20133;-79
2023/01/08 09:42:54;;;;;;;5.45;3.40;;;;;;;;;;5040307;28;20049;-82
2023/01/08 09:45:26;;;;;;;5.97;3.00;;;;;;;;;;5038800;28;20052;-81
2023/01/08 09:47:54;;;;;;;5.30;3.47;;;;;;;;;;5038500;28;20083;-81
2023/01/08 09:50:24;;;;;;;5.20;3.05;;;;;;;;;;5035680;28;20478;-82
2023/01/08 09:52:51;;;;;;;8.57;4.38;;;;;;;;;;5033675;28;20057;-79
2023/01/08 09:55:18;;;;;;;7.28;3.70;;;;;;;;;;5034727;28;20053;-80
2023/01/08 09:57:46;;;;;;;6.97;2.92;;;;;;;;;;5034487;28;20049;-79
2023/01/08 10:00:16;;;;;;;6.20;3.65;;;;;;;;;;5034713;28;20045;-79
2023/01/08 10:02:43;;;;;;;7.67;3.90;;;;;;;;;;5041466;28;20571;-83
2023/01/08 10:05:16;;;;;;;6.20;3.15;;;;;;;;;;5055372;28;20440;-79
2023/01/08 10:07:44;;;;;;;5.43;2.92;;;;;;;;;;5055437;28;20045;-79
2023/01/08 10:10:18;;;;;;;4.85;2.47;;;;;;;;;;5056265;28;20422;-82
2023/01/08 10:12:45;;;;;;;4.97;3.05;;;;;;;;;;5056026;28;20048;-81
2023/01/08 10:15:15;;;;;;;5.55;2.60;;;;;;;;;;5056160;28;20053;-79
2023/01/08 10:17:45;;;;;;;5.00;2.97;;;;;;;;;;5056075;28;20049;-80
2023/01/08 10:20:16;;;;;;;4.70;2.65;;;;;;;;;;5056454;28;20052;-80
2023/01/08 10:22:43;;;;;;;5.47;2.50;;;;;;;;;;5054312;28;20073;-79
2023/01/08 10:25:12;;;;;;;5.18;2.65;;;;;;;;;;5055309;28;20071;-81
2023/01/08 10:27:47;;;;;;;4.13;2.20;;;;;;;;;;5055275;28;20210;-79
2023/01/08 10:30:19;;;;;;;4.07;2.15;;;;;;;;;;5054723;28;20057;-79
2023/01/08 10:32:48;;;;;;;4.38;2.38;;;;;;;;;;5054737;28;20060;-80
2023/01/08 10:35:20;;;;;;;4.70;2.30;;;;;;;;;;5054726;28;20053;-79
2023/01/08 10:37:49;;;;;;;4.75;2.33;;;;;;;;;;5057235;28;20045;-78
2023/01/08 10:40:23;;;;;;;6.03;2.80;;;;;;;;;;5059000;28;20064;-82
2023/01/08 10:42:51;;;;;;;6.18;3.10;;;;;;;;;;5056640;28;20523;-82
2023/01/08 10:45:21;;;;;;;5.32;3.17;;;;;;;;;;5055966;28;20081;-82
2023/01/08 10:47:50;;;;;;;5.50;2.85;;;;;;;;;;5056435;28;20132;-83
2023/01/08 10:50:22;;;;;;;5.22;2.80;;;;;;;;;;5055800;28;20439;-79
2023/01/08 10:52:53;;;;;;;6.20;2.90;;;;;;;;;;5055157;28;20512;-78
2023/01/08 10:55:24;;;;;;;6.10;3.30;;;;;;;;;;5056604;28;20052;-77
2023/01/08 10:57:56;;;;;;;6.85;2.65;;;;;;;;;;5056482;28;20500;-78
2023/01/08 11:00:28;;;;;;;7.95;3.08;;;;;;;;;;5056457;28;20444;-77
2023/01/08 11:02:56;;;;;;;4.90;2.80;;;;;;;;;;5055016;28;20488;-80
2023/01/08 11:05:32;;;;;;;5.10;2.60;;;;;;;;;;5055520;28;20051;-79
2023/01/08 11:08:00;;;;;;;10.30;3.47;;;;;;;;;;5058088;28;20045;-78
2023/01/08 11:10:28;;;;;;;4.50;2.50;;;;;;;;;;5055831;28;20048;-77
2023/01/08 11:12:58;;;;;;;5.15;3.20;;;;;;;;;;5053983;28;20076;-77
2023/01/08 11:15:37;;;;;;;4.80;2.47;;;;;;;;;;5053394;28;20120;-78
2023/01/08 11:18:13;;;;;;;7.30;3.00;;;;;;;;;;5053853;28;20085;-78
2023/01/08 11:20:41;;;;;;;5.57;2.60;;;;;;;;;;5082345;22;20033;-52
2023/01/08 11:23:16;;;;;;;5.97;2.90;;;;;;;;;;5051594;28;20128;-52
2023/01/08 11:25:47;;;;;;;6.90;2.22;;;;;;;;;;5051850;28;20077;-50
2023/01/08 11:28:17;;;;;;;;;;;;;;;;;;5050858;28;20049;-54
2023/01/08 11:30:51;;;;;;;4.85;2.63;;;;;;;;;;5034972;28;20328;-50
2023/01/08 11:33:22;;;;;;;4.90;2.65;;;;;;;;;;5035211;28;20045;-51
2023/01/08 11:35:56;;;;;;;4.93;2.90;;;;;;;;;;5051628;28;20048;-53
2023/01/08 11:38:23;;;;;;;4.85;2.47;;;;;;;;;;5051555;28;20096;-51
2023/01/08 11:40:53;;;;;;;5.75;2.58;;;;;;;;;;5050621;28;20421;-53
2023/01/08 11:43:31;;;;;;;5.68;3.95;;;;;;;;;;5050830;28;20452;-51
2023/01/08 11:46:16;;;;;;;5.00;2.60;;;;;;;;;;5051984;28;20638;-52
2023/01/08 11:49:04;;;;;;;5.05;2.67;;;;;;;;;;5051328;28;20057;-51
2023/01/08 11:51:42;;;;;;;5.55;2.65;;;;;;;;;;5051495;28;20095;-51
2023/01/08 11:54:25;;;;;;;4.55;2.10;;;;;;;;;;5051516;28;20418;-52
2023/01/08 11:57:08;;;;;;;5.35;2.45;;;;;;;;;;5051422;28;20110;-53
2023/01/08 11:59:58;;;;;;;4.65;2.20;;;;;;;;;;5055148;28;20061;-51
2023/01/08 12:02:37;;;;;;;7.63;3.53;;;;;;;;;;5054520;28;20118;-63
2023/01/08 12:05:26;;;;;;;6.75;3.17;;;;;;;;;;5053735;28;20041;-65
2023/01/08 12:08:02;;;;;;;5.53;2.33;;;;;;;;;;5054209;28;20040;-64
2023/01/08 12:10:45;;;;;;;4.72;2.15;;;;;;;;;;5053921;28;20498;-64
2023/01/08 12:13:27;;;;;;;5.18;2.40;;;;;;;;;;5054485;28;20053;-69
2023/01/08 12:16:08;;;;;;;5.75;2.42;;;;;;;;;;5054900;28;20045;-69
2023/01/08 12:18:58;;;;;;;3.63;1.80;;;;;;;;;;5054645;28;20456;-64
2023/01/08 12:21:31;;;;;;;5.28;1.95;;;;;;;;;;5051098;28;20045;-60
2023/01/08 12:24:15;;;;;;;4.57;2.50;;;;;;;;;;5054241;28;20057;-59
2023/01/08 12:26:49;;;;;;;10.80;4.65;;;;;;;;;;5054664;28;20104;-67
2023/01/08 12:29:41;;;;;;;7.95;5.00;;;;;;;;;;5054340;28;20059;-63
2023/01/08 12:32:20;;;;;;;16.33;10.50;;;;;;;;;;5053354;28;20106;-57
2023/01/08 12:34:55;;;;;;;11.23;6.50;;;;;;;;;;5054366;28;20517;-62
2023/01/08 12:37:27;;;;;;;6.47;4.07;;;;;;;;;;5053330;28;20053;-66
2023/01/08 12:40:05;;;;;;;8.40;3.22;;;;;;;;;;5054259;28;20053;-56
2023/01/08 12:42:34;;;;;;;9.57;5.22;;;;;;;;;;5053479;28;20056;-53
2023/01/08 12:45:04;;;;;;;11.73;5.32;;;;;;;;;;5054310;28;20045;-53
2023/01/08 12:47:33;;;;;;;9.05;4.57;;;;;;;;;;5052511;28;20056;-50
2023/01/08 12:50:20;;;;;;;8.23;4.65;;;;;;;;;;5053944;28;20060;-50
2023/01/08 12:52:55;;;;;;;8.57;3.45;;;;;;;;;;5053239;28;20049;-52
2023/01/08 12:55:35;;;;;;;6.07;3.00;;;;;;;;;;5053718;28;20395;-52
2023/01/08 12:58:13;;;;;;;5.77;2.33;;;;;;;;;;5053779;28;20132;-52
2023/01/08 13:00:46;;;;;;;6.30;2.75;;;;;;;;;;5052876;28;20056;-53
2023/01/08 13:03:18;;;;;;;5.85;2.30;;;;;;;;;;5046572;28;20129;-50
2023/01/08 13:05:45;;;;;;;5.82;2.60;;;;;;;;;;5048059;28;20048;-52
2023/01/08 13:08:29;;;;;;;6.63;2.65;;;;;;;;;;5053078;28;20520;-53
2023/01/08 13:10:57;;;;;;;5.80;2.40;;;;;;;;;;5046475;28;20048;-49
2023/01/08 13:13:27;;;;;;;4.95;3.20;;;;;;;;;;5036877;28;20107;-50
2023/01/08 13:16:07;;;;;;;7.07;2.90;;;;;;;;;;5033822;28;20053;-50
2023/01/08 13:18:34;;;;;;;5.90;3.53;;;;;;;;;;5048994;28;20282;-49
2023/01/08 13:21:02;;;;;;;5.95;3.22;;;;;;;;;;5049387;28;20056;-51
2023/01/08 13:23:33;;;;;;;4.28;2.17;;;;;;;;;;5045462;28;20405;-51
2023/01/08 13:26:03;;;;;;;;;;;;;;;;;;5040049;28;20056;-52
2023/01/08 13:28:41;;;;;;;4.18;2.13;;;;;;;;;;5045468;28;19921;-50
2023/01/08 13:31:10;;;;;;;5.25;2.60;;;;;;;;;;5051377;28;20102;-49
2023/01/08 13:33:40;;;;;;;5.93;2.08;;;;;;;;;;5041047;28;20044;-54
2023/01/08 13:36:20;;;;;;;4.67;2.47;;;;;;;;;;5044456;28;20041;-52
2023/01/08 13:38:58;;;;;;;4.90;2.30;;;;;;;;;;5044455;28;20337;-54
2023/01/08 13:41:29;;;;;;;6.45;2.95;;;;;;;;;;5044136;28;20055;-50
2023/01/08 13:44:00;;;;;;;4.80;2.45;;;;;;;;;;5043158;28;20057;-51
2023/01/08 13:46:28;;;;;;;4.47;2.38;;;;;;;;;;5043987;28;20076;-49
2023/01/08 13:49:00;;;;;;;5.53;2.65;;;;;;;;;;5042883;28;20049;-50
2023/01/08 13:51:43;;;;;;;7.03;2.97;;;;;;;;;;5041679;28;20134;-50
2023/01/08 13:54:21;;;;;;;6.18;2.88;;;;;;;;;;5044265;28;20046;-52
2023/01/08 13:56:55;;;;;;;6.32;3.10;;;;;;;;;;5045023;28;20570;-51
2023/01/08 13:59:36;;;;;;;5.50;2.60;;;;;;;;;;5044844;28;20052;-50
2023/01/08 14:02:03;;;;;;;4.88;2.38;;;;;;;;;;5043235;28;20049;-50
2023/01/08 14:04:30;;;;;;;5.32;2.75;;;;;;;;;;5044460;28;20493;-52
2023/01/08 14:07:11;;;;;;;5.50;2.70;;;;;;;;;;5043038;28;20103;-52
2023/01/08 14:09:37;;;;;;;;;;;;;;;;;;5042227;28;20128;-51
2023/01/08 14:12:09;;;;;;;4.57;2.25;;;;;;;;;;5039817;28;19928;-50
2023/01/08 14:14:38;;;;;;;4.57;2.47;;;;;;;;;;5043976;28;20486;-51
2023/01/08 14:17:10;;;;;;;6.47;2.40;;;;;;;;;;5051468;28;20048;-48
2023/01/08 14:19:37;;;;;;;3.65;1.63;;;;;;;;;;5052157;28;20068;-56
2023/01/08 14:22:10;;;;;;;4.10;1.88;;;;;;;;;;5051298;28;20049;-62
2023/01/08 14:24:37;;;;;;;3.50;1.58;;;;;;;;;;5050524;28;20060;-61
2023/01/08 14:27:04;;;;;;;4.50;1.58;;;;;;;;;;5052212;28;20053;-62
2023/01/08 14:29:35;;;;;;;5.57;2.38;;;;;;;;;;5051704;28;20398;-62
2023/01/08 14:32:02;;;;;;;6.03;2.60;;;;;;;;;;5051177;28;20053;-51
2023/01/08 14:34:30;;;;;;;4.57;1.80;;;;;;;;;;5052006;28;20053;-53
2023/01/08 14:36:58;;;;;;;4.30;2.35;;;;;;;;;;5032060;28;20053;-50
2023/01/08 14:39:32;;;;;;;4.72;2.30;;;;;;;;;;5032161;28;20103;-51
2023/01/08 14:44:58;;;;;;;4.63;2.30;;;;;;;;;;5014930;28;20055;-51
2023/01/08 14:47:30;;;;;;;6.68;2.85;;;;;;;;;;5051777;28;20106;-51
2023/01/08 14:49:57;;;;;;;5.95;3.30;;;;;;;;;;5051692;28;20045;-51
2023/01/08 14:52:24;;;;;;;6.75;3.10;;;;;;;;;;5051221;28;20049;-53
2023/01/08 14:54:55;;;;;;;5.80;2.97;;;;;;;;;;5041652;28;20494;-51
2023/01/08 14:57:23;;;;;;;6.30;2.97;;;;;;;;;;5051217;28;20205;-54
2023/01/08 14:59:54;;;;;;;6.47;3.58;;;;;;;;;;5051097;28;20430;-51
2023/01/08 15:02:27;;;;;;;5.93;3.10;;;;;;;;;;5051395;28;20080;-51
2023/01/08 15:05:13;;;;;;;6.95;3.58;;;;;;;;;;5044147;28;20401;-50
2023/01/08 15:07:42;;;;;;;5.22;2.90;;;;;;;;;;5031884;28;20137;-50
2023/01/08 15:10:31;;;;;;;6.20;2.78;;;;;;;;;;5031663;28;20049;-52
2023/01/08 15:12:59;;;;;;;5.25;2.63;;;;;;;;;;5031561;28;20099;-51
2023/01/08 15:15:27;;;;;;;5.13;2.63;;;;;;;;;;5032313;28;20406;-50
2023/01/08 15:17:55;;;;;;;5.53;2.33;;;;;;;;;;5031602;28;20107;-50
2023/01/08 15:20:26;;;;;;;5.38;2.67;;;;;;;;;;5031420;28;20443;-51
2023/01/08 15:22:53;;;;;;;5.78;2.88;;;;;;;;;;5031284;28;20107;-47
2023/01/08 15:25:25;;;;;;;6.00;3.50;;;;;;;;;;5031406;28;20135;-52
2023/01/08 15:27:56;;;;;;;6.45;3.30;;;;;;;;;;5031575;28;20083;-51
2023/01/08 15:30:32;;;;;;;6.25;3.60;;;;;;;;;;5031445;28;20494;-51
2023/01/08 15:33:09;;;;;;;7.25;3.85;;;;;;;;;;5033040;28;20068;-50
2023/01/08 15:35:35;;;;;;;7.82;4.15;;;;;;;;;;5035212;28;20100;-50
2023/01/08 15:38:02;;;;;;;6.15;4.13;;;;;;;;;;5035060;28;20056;-51